createdAt,value
2023-01-28T00:01:55.450Z,99.14
2023-01-28T00:04:22.318Z,97.19
2023-01-28T00:06:48.979Z,99.41
2023-01-28T00:09:15.825Z,100.00
2023-01-28T00:11:42.800Z,98.07
2023-01-28T00:14:11.966Z,99.03
2023-01-28T00:16:38.915Z,98.06
2023-01-28T00:19:05.816Z,97.84
2023-01-28T00:21:32.711Z,99.19
2023-01-28T00:23:59.584Z,97.19
2023-01-28T00:26:26.554Z,99.33
2023-01-28T00:28:53.462Z,100.00
2023-01-28T00:31:25.149Z,97.76
2023-01-28T00:33:52.740Z,99.13
2023-01-28T00:36:21.640Z,98.79
2023-01-28T00:38:53.547Z,98.94
2023-01-28T00:41:25.276Z,100.00
2023-01-28T00:43:53.088Z,100.00
2023-01-28T00:46:21.070Z,100.00
2023-01-28T00:48:48.033Z,100.00
2023-01-28T00:51:17.398Z,100.00
2023-01-28T00:53:44.565Z,100.00
2023-01-28T00:56:14.361Z,99.91
2023-01-28T00:58:41.618Z,98.51
2023-01-28T01:01:19.902Z,100.00
2023-01-28T01:03:47.332Z,100.00
2023-01-28T01:06:15.890Z,100.00
2023-01-28T01:08:50.718Z,100.00
2023-01-28T01:11:18.150Z,99.43
2023-01-28T01:13:45.008Z,98.74
2023-01-28T01:16:12.793Z,100.00
2023-01-28T01:18:42.211Z,100.00
2023-01-28T01:21:12.586Z,100.00
2023-01-28T01:23:39.801Z,100.00
2023-01-28T01:26:07.359Z,100.00
2023-01-28T01:28:34.616Z,99.97
2023-01-28T01:31:08.154Z,100.00
2023-01-28T01:33:35.448Z,98.06
2023-01-28T01:36:02.309Z,100.00
2023-01-28T01:38:29.165Z,100.00
2023-01-28T01:40:59.931Z,100.00
2023-01-28T01:43:48.949Z,100.00
2023-01-28T01:46:18.115Z,100.00
2023-01-28T01:48:45.125Z,100.00
2023-01-28T01:51:15.512Z,100.00
2023-01-28T01:53:45.670Z,100.00
2023-01-28T01:56:17.064Z,100.00
2023-01-28T01:58:46.033Z,100.00
2023-01-28T02:01:13.869Z,100.00
2023-01-28T02:04:05.697Z,100.00
2023-01-28T02:06:32.831Z,100.00
2023-01-28T02:08:59.689Z,100.00
2023-01-28T02:11:27.281Z,100.00
2023-01-28T02:13:57.234Z,100.00
2023-01-28T02:16:24.780Z,100.00
2023-01-28T02:18:51.748Z,100.00
2023-01-28T02:22:00.543Z,100.00
2023-01-28T02:24:42.303Z,100.00
2023-01-28T02:27:23.206Z,100.00
2023-01-28T02:29:53.055Z,100.00
2023-01-28T02:32:28.275Z,100.00
2023-01-28T02:35:18.960Z,100.00
2023-01-28T02:38:07.263Z,100.00
2023-01-28T02:40:57.419Z,100.00
2023-01-28T02:43:38.780Z,100.00
2023-01-28T02:46:40.345Z,100.00
2023-01-28T02:49:12.259Z,100.00
2023-01-28T02:51:59.654Z,100.00
2023-01-28T02:55:08.078Z,100.00
2023-01-28T02:57:43.481Z,100.00
2023-01-28T03:00:42.611Z,100.00
2023-01-28T03:03:09.415Z,100.00
2023-01-28T03:05:37.175Z,100.00
2023-01-28T03:08:25.459Z,100.00
2023-01-28T03:11:12.716Z,100.00
2023-01-28T03:13:59.209Z,100.00
2023-01-28T03:16:44.399Z,100.00
2023-01-28T03:19:30.503Z,100.00
2023-01-28T03:22:16.908Z,100.00
2023-01-28T03:25:06.474Z,100.00
2023-01-28T03:27:58.893Z,100.00
2023-01-28T03:30:53.286Z,100.00
2023-01-28T03:33:39.194Z,100.00
2023-01-28T03:36:26.135Z,100.00
2023-01-28T03:38:53.138Z,100.00
2023-01-28T03:41:22.650Z,100.00
2023-01-28T03:43:50.323Z,100.00
2023-01-28T03:46:18.692Z,100.00
2023-01-28T03:48:46.109Z,100.00
2023-01-28T03:51:12.990Z,100.00
2023-01-28T03:53:40.554Z,100.00
2023-01-28T03:56:07.615Z,100.00
2023-01-28T03:58:52.908Z,100.00
2023-01-28T04:01:20.688Z,100.00
2023-01-28T04:03:47.735Z,100.00
2023-01-28T04:06:15.021Z,100.00
2023-01-28T04:08:46.262Z,100.00
2023-01-28T04:11:15.944Z,100.00
2023-01-28T04:13:43.600Z,100.00
2023-01-28T04:16:14.143Z,100.00
2023-01-28T04:18:41.073Z,100.00
2023-01-28T04:21:07.959Z,100.00
2023-01-28T04:23:35.278Z,100.00
2023-01-28T04:26:02.211Z,100.00
2023-01-28T04:28:29.056Z,100.00
2023-01-28T04:30:55.893Z,98.40
2023-01-28T04:33:23.411Z,98.69
2023-01-28T04:35:50.266Z,97.77
2023-01-28T04:38:17.185Z,98.86
2023-01-28T04:40:44.037Z,100.00
2023-01-28T04:43:10.687Z,100.00
2023-01-28T04:45:37.551Z,98.34
2023-01-28T04:48:04.247Z,98.12
2023-01-28T04:50:31.120Z,100.00
2023-01-28T04:52:57.865Z,98.19
2023-01-28T04:55:24.782Z,96.91
2023-01-28T04:57:51.639Z,98.61
2023-01-28T05:00:18.594Z,95.78
2023-01-28T05:02:45.519Z,98.15
2023-01-28T05:05:12.472Z,99.05
2023-01-28T05:07:39.500Z,96.80
2023-01-28T05:10:07.873Z,96.53
2023-01-28T05:12:34.716Z,98.95
2023-01-28T05:15:01.550Z,96.76
2023-01-28T05:17:29.050Z,97.97
2023-01-28T05:19:56.020Z,100.00
2023-01-28T05:22:22.987Z,99.80
2023-01-28T05:24:49.832Z,100.00
2023-01-28T05:27:16.475Z,100.00
2023-01-28T05:29:43.341Z,100.00
2023-01-28T05:32:10.031Z,100.00
2023-01-28T05:34:36.953Z,100.00
2023-01-28T05:37:03.855Z,100.00
2023-01-28T05:39:31.534Z,100.00
2023-01-28T05:41:58.560Z,100.00
2023-01-28T05:44:25.426Z,100.00
2023-01-28T05:46:52.300Z,100.00
2023-01-28T05:49:19.168Z,100.00
2023-01-28T05:51:46.105Z,100.00
2023-01-28T05:54:13.209Z,100.00
2023-01-28T05:56:40.966Z,100.00
2023-01-28T05:59:08.262Z,100.00
2023-01-28T06:01:36.107Z,99.85
2023-01-28T06:04:03.010Z,100.00
2023-01-28T06:06:29.939Z,99.01
2023-01-28T06:08:56.917Z,97.96
2023-01-28T06:11:23.842Z,97.84
2023-01-28T06:13:50.755Z,94.39
2023-01-28T06:16:17.738Z,95.60
2023-01-28T06:18:45.015Z,96.31
2023-01-28T06:21:11.968Z,93.11
2023-01-28T06:23:38.858Z,93.82
2023-01-28T06:26:05.697Z,95.00
2023-01-28T06:28:32.346Z,94.10
2023-01-28T06:30:59.225Z,93.46
2023-01-28T06:33:26.164Z,91.58
2023-01-28T06:35:53.120Z,91.44
2023-01-28T06:38:19.997Z,94.64
2023-01-28T06:40:51.399Z,92.26
2023-01-28T06:43:18.494Z,92.87
2023-01-28T06:45:45.375Z,93.66
2023-01-28T06:48:12.032Z,96.04
2023-01-28T06:50:38.907Z,93.93
2023-01-28T06:53:05.665Z,93.40
2023-01-28T06:55:32.504Z,94.47
2023-01-28T06:57:59.297Z,96.12
2023-01-28T07:00:30.362Z,95.81
2023-01-28T07:02:57.540Z,96.19
2023-01-28T07:05:24.766Z,98.30
2023-01-28T07:07:51.854Z,100.00
2023-01-28T07:10:18.866Z,99.58
2023-01-28T07:12:45.966Z,96.97
2023-01-28T07:15:13.871Z,97.92
2023-01-28T07:17:43.531Z,95.75
2023-01-28T07:20:13.196Z,98.82
2023-01-28T07:22:44.077Z,97.55
2023-01-28T07:25:12.152Z,99.16
2023-01-28T07:27:39.202Z,99.05
2023-01-28T07:30:06.623Z,99.41
2023-01-28T07:32:33.511Z,97.67
2023-01-28T07:35:00.377Z,98.81
2023-01-28T07:37:27.087Z,96.93
2023-01-28T07:39:55.968Z,97.96
2023-01-28T07:42:22.807Z,100.00
2023-01-28T07:44:49.954Z,100.00
2023-01-28T07:47:16.962Z,100.00
2023-01-28T07:49:43.830Z,100.00
2023-01-28T07:52:10.535Z,100.00
2023-01-28T07:54:37.448Z,99.79
2023-01-28T07:57:10.054Z,97.05
2023-01-28T07:59:39.212Z,97.29
2023-01-28T08:02:06.533Z,100.00
2023-01-28T08:04:33.457Z,98.98
2023-01-28T08:07:00.360Z,99.74
2023-01-28T08:09:27.059Z,98.54
2023-01-28T08:11:54.966Z,98.65
2023-01-28T08:14:21.823Z,96.77
2023-01-28T08:16:48.468Z,95.83
2023-01-28T08:19:16.297Z,95.15
2023-01-28T08:21:43.187Z,96.52
2023-01-28T08:24:10.256Z,96.60
2023-01-28T08:26:37.201Z,95.71
2023-01-28T08:29:04.119Z,97.86
2023-01-28T08:31:31.127Z,95.06
2023-01-28T08:33:59.461Z,97.52
2023-01-28T08:36:27.472Z,96.37
2023-01-28T08:38:57.120Z,94.85
2023-01-28T08:41:24.302Z,93.51
2023-01-28T08:43:51.152Z,97.74
2023-01-28T08:46:17.903Z,97.17
2023-01-28T08:48:44.824Z,96.66
2023-01-28T08:51:11.686Z,94.13
2023-01-28T08:53:38.444Z,95.22
2023-01-28T08:56:05.704Z,95.03
2023-01-28T08:58:32.690Z,94.13
2023-01-28T09:01:04.872Z,97.54
2023-01-28T09:03:31.804Z,94.92
2023-01-28T09:06:03.347Z,92.83
2023-01-28T09:08:30.278Z,95.41
2023-01-28T09:10:58.789Z,93.76
2023-01-28T09:13:25.968Z,96.06
2023-01-28T09:15:53.037Z,94.59
2023-01-28T09:18:20.102Z,93.53
2023-01-28T09:20:47.173Z,93.79
2023-01-28T09:23:14.345Z,93.60
2023-01-28T09:25:41.260Z,94.81
2023-01-28T09:28:08.196Z,92.46
2023-01-28T09:30:37.083Z,90.39
2023-01-28T09:33:04.546Z,91.64
2023-01-28T09:35:31.440Z,91.35
2023-01-28T09:37:58.786Z,93.07
2023-01-28T09:40:57.919Z,91.99
2023-01-28T09:43:44.644Z,91.25
2023-01-28T09:46:13.385Z,91.55
2023-01-28T09:48:47.841Z,89.46
2023-01-28T09:51:28.081Z,89.84
2023-01-28T09:53:56.166Z,91.17
2023-01-28T09:56:26.922Z,87.77
2023-01-28T09:58:53.836Z,89.15
2023-01-28T10:01:38.149Z,89.56
2023-01-28T10:04:09.989Z,89.89
2023-01-28T10:06:55.205Z,89.11
2023-01-28T10:10:16.104Z,87.82
2023-01-28T10:13:21.981Z,86.69
2023-01-28T10:16:24.918Z,85.14
2023-01-28T10:19:07.695Z,86.17
2023-01-28T10:21:42.230Z,87.18
2023-01-28T10:24:11.583Z,86.55
2023-01-28T10:26:42.017Z,88.73
2023-01-28T10:29:20.050Z,86.07
2023-01-28T10:32:12.272Z,84.81
2023-01-28T10:34:39.294Z,86.54
2023-01-28T10:37:06.143Z,87.21
2023-01-28T10:39:32.813Z,86.39
2023-01-28T10:41:59.790Z,86.28
2023-01-28T10:44:34.726Z,87.02
2023-01-28T10:47:05.588Z,85.32
2023-01-28T10:49:33.175Z,86.84
2023-01-28T10:51:59.989Z,86.30
2023-01-28T10:54:27.959Z,87.29
2023-01-28T10:57:03.252Z,87.89
2023-01-28T10:59:36.853Z,86.97
2023-01-28T11:02:22.989Z,87.37
2023-01-28T11:05:18.930Z,90.36
2023-01-28T11:07:45.826Z,89.23
2023-01-28T11:10:26.740Z,86.72
2023-01-28T11:13:00.730Z,87.77
2023-01-28T11:15:27.711Z,87.81
2023-01-28T11:18:00.418Z,88.66
2023-01-28T11:20:38.302Z,87.26
2023-01-28T11:23:05.457Z,88.81
2023-01-28T11:25:37.070Z,86.29
2023-01-28T11:28:08.913Z,87.93
2023-01-28T11:30:40.459Z,86.29
2023-01-28T11:33:17.387Z,86.60
2023-01-28T11:35:55.767Z,88.02
2023-01-28T11:38:24.747Z,87.87
2023-01-28T11:40:56.788Z,86.15
2023-01-28T11:43:28.605Z,88.85
2023-01-28T11:46:13.822Z,88.26
2023-01-28T11:48:47.766Z,87.83
2023-01-28T11:51:30.896Z,86.64
2023-01-28T11:54:33.803Z,88.11
2023-01-28T11:57:18.912Z,88.46
2023-01-28T11:59:58.735Z,85.63
2023-01-28T12:02:47.318Z,86.07
2023-01-28T12:05:20.344Z,85.81
2023-01-28T12:08:00.251Z,85.38
2023-01-28T12:10:46.096Z,86.10
2023-01-28T12:13:30.079Z,84.26
2023-01-28T12:16:07.324Z,87.86
2023-01-28T12:19:13.498Z,86.27
2023-01-28T12:21:48.281Z,85.54
2023-01-28T12:24:41.384Z,86.25
2023-01-28T12:27:08.585Z,86.23
2023-01-28T12:30:01.673Z,83.70
2023-01-28T12:32:31.696Z,81.81
2023-01-28T12:35:17.287Z,85.76
2023-01-28T12:38:07.282Z,86.13
2023-01-28T12:40:55.753Z,83.45
2023-01-28T12:43:27.675Z,84.77
2023-01-28T12:45:58.321Z,87.74
2023-01-28T12:48:33.226Z,82.62
2023-01-28T12:51:22.939Z,84.21
2023-01-28T12:54:00.043Z,81.77
2023-01-28T12:56:51.482Z,83.74
2023-01-28T12:59:40.501Z,85.21
2023-01-28T13:02:13.661Z,84.15
2023-01-28T13:05:05.258Z,83.07
2023-01-28T13:07:51.136Z,85.91
2023-01-28T13:10:43.684Z,85.04
2023-01-28T13:13:37.044Z,85.57
2023-01-28T13:16:05.368Z,85.07
2023-01-28T13:18:48.095Z,86.10
2023-01-28T13:21:27.918Z,84.14
2023-01-28T13:24:10.191Z,85.64
2023-01-28T13:26:43.591Z,84.65
2023-01-28T13:29:25.832Z,85.79
2023-01-28T13:32:03.248Z,87.47
2023-01-28T13:34:30.266Z,86.16
2023-01-28T13:36:57.197Z,85.65
2023-01-28T13:39:25.686Z,87.10
2023-01-28T13:42:19.812Z,87.81
2023-01-28T13:44:46.723Z,85.64
2023-01-28T13:47:27.601Z,86.71
2023-01-28T13:49:56.876Z,87.24
2023-01-28T13:52:28.187Z,85.42
2023-01-28T13:55:11.596Z,86.07
2023-01-28T13:57:59.218Z,85.38
2023-01-28T14:00:46.441Z,84.90
2023-01-28T14:03:41.587Z,84.72
2023-01-28T14:06:34.675Z,85.99
2023-01-28T14:09:24.006Z,86.83
2023-01-28T14:12:21.956Z,85.50
2023-01-28T14:15:04.773Z,85.47
2023-01-28T14:17:49.384Z,88.58
2023-01-28T14:20:21.539Z,89.71
2023-01-28T14:22:49.569Z,89.43
2023-01-28T14:25:39.652Z,89.72
2023-01-28T14:28:08.681Z,90.18
2023-01-28T14:30:48.146Z,93.04
2023-01-28T14:33:15.020Z,90.52
2023-01-28T14:35:44.589Z,92.11
2023-01-28T14:38:15.631Z,90.77
2023-01-28T14:40:42.817Z,91.97
2023-01-28T14:43:16.229Z,88.89
2023-01-28T14:45:49.231Z,92.47
2023-01-28T14:48:31.406Z,92.33
2023-01-28T14:51:18.768Z,91.00
2023-01-28T14:54:17.654Z,89.56
2023-01-28T14:57:22.102Z,91.04
2023-01-28T14:59:58.174Z,94.29
2023-01-28T15:02:28.138Z,93.00
2023-01-28T15:04:55.698Z,91.42
2023-01-28T15:07:24.882Z,92.04
2023-01-28T15:10:08.278Z,90.91
2023-01-28T15:12:38.555Z,92.70
2023-01-28T15:15:29.137Z,92.80
2023-01-28T15:18:01.205Z,92.11
2023-01-28T15:20:36.110Z,94.15
2023-01-28T15:23:04.025Z,95.67
2023-01-28T15:25:30.922Z,94.88
2023-01-28T15:28:00.513Z,92.86
2023-01-28T15:30:30.605Z,94.97
2023-01-28T15:33:02.863Z,94.05
2023-01-28T15:35:29.885Z,96.88
2023-01-28T15:37:57.082Z,97.00
2023-01-28T15:40:26.217Z,95.48
2023-01-28T15:42:54.470Z,99.25
2023-01-28T15:45:22.860Z,96.88
2023-01-28T15:47:50.858Z,95.78
2023-01-28T15:50:23.309Z,95.54
2023-01-28T15:52:52.313Z,95.93
2023-01-28T15:55:36.113Z,96.97
2023-01-28T15:58:26.858Z,96.68
2023-01-28T16:01:08.965Z,98.31
2023-01-28T16:03:42.024Z,99.04
2023-01-28T16:06:22.123Z,98.18
2023-01-28T16:08:59.121Z,96.89
2023-01-28T16:11:32.928Z,96.04
2023-01-28T16:14:00.285Z,97.69
2023-01-28T16:16:34.460Z,97.75
2023-01-28T16:19:03.840Z,97.64
2023-01-28T16:21:37.346Z,96.16
2023-01-28T16:24:18.763Z,97.92
2023-01-28T16:26:58.724Z,99.52
2023-01-28T16:29:26.651Z,99.38
2023-01-28T16:31:54.726Z,100.00
2023-01-28T16:34:21.770Z,98.89
2023-01-28T16:36:48.795Z,97.68
2023-01-28T16:39:15.642Z,99.31
2023-01-28T16:41:44.715Z,95.49
2023-01-28T16:44:13.959Z,96.09
2023-01-28T16:46:41.584Z,98.23
2023-01-28T16:49:09.463Z,98.46
2023-01-28T16:51:42.945Z,97.84
2023-01-28T16:54:14.245Z,98.64
2023-01-28T16:56:45.733Z,100.00
2023-01-28T16:59:14.979Z,99.30
2023-01-28T17:01:42.607Z,99.64
2023-01-28T17:04:12.004Z,99.98
2023-01-28T17:06:43.233Z,99.80
2023-01-28T17:09:13.732Z,99.72
2023-01-28T17:11:41.860Z,98.82
2023-01-28T17:14:10.086Z,98.69
2023-01-28T17:16:37.598Z,98.63
2023-01-28T17:19:04.689Z,96.55
2023-01-28T17:21:32.401Z,98.32
2023-01-28T17:24:01.100Z,98.89
2023-01-28T17:26:29.288Z,98.96
2023-01-28T17:28:56.681Z,97.11
2023-01-28T17:31:26.450Z,99.25
2023-01-28T17:33:55.298Z,98.25
2023-01-28T17:36:22.853Z,97.27
2023-01-28T17:38:49.700Z,96.29
2023-01-28T17:41:17.717Z,94.68
2023-01-28T17:43:44.562Z,96.33
2023-01-28T17:46:13.581Z,96.63
2023-01-28T17:48:40.971Z,97.39
2023-01-28T17:51:07.888Z,97.30
2023-01-28T17:53:34.808Z,96.17
2023-01-28T17:56:01.707Z,95.16
2023-01-28T17:58:28.563Z,95.21
2023-01-28T18:00:55.237Z,95.58
2023-01-28T18:03:22.138Z,97.54
2023-01-28T18:05:59.391Z,96.33
2023-01-28T18:08:26.527Z,93.36
2023-01-28T18:10:53.458Z,92.68
2023-01-28T18:13:20.338Z,94.08
2023-01-28T18:15:47.001Z,92.93
2023-01-28T18:18:13.841Z,94.43
2023-01-28T18:20:40.490Z,93.66
2023-01-28T18:23:07.358Z,94.61
2023-01-28T18:25:34.061Z,96.48
2023-01-28T18:28:00.945Z,93.43
2023-01-28T18:30:30.298Z,94.26
2023-01-28T18:32:57.135Z,93.73
2023-01-28T18:35:23.784Z,95.08
2023-01-28T18:37:50.656Z,92.55
2023-01-28T18:40:17.843Z,93.82
2023-01-28T18:42:44.710Z,94.53
2023-01-28T18:45:11.779Z,96.79
2023-01-28T18:47:38.629Z,92.34
2023-01-28T18:50:06.360Z,92.41
2023-01-28T18:52:33.242Z,91.70
2023-01-28T18:54:59.957Z,90.05
2023-01-28T18:57:26.813Z,88.65
2023-01-28T18:59:53.632Z,87.66
2023-01-28T19:02:20.582Z,88.99
2023-01-28T19:04:47.614Z,91.91
2023-01-28T19:07:14.520Z,90.76
2023-01-28T19:09:41.225Z,87.65
2023-01-28T19:12:08.115Z,89.17
2023-01-28T19:14:34.774Z,90.37
2023-01-28T19:17:01.617Z,90.63
2023-01-28T19:19:28.266Z,92.94
2023-01-28T19:21:55.102Z,92.67
2023-01-28T19:24:21.868Z,93.83
2023-01-28T19:26:48.788Z,93.59
2023-01-28T19:29:16.308Z,94.26
2023-01-28T19:31:44.742Z,95.08
2023-01-28T19:34:11.848Z,91.99
2023-01-28T19:36:39.123Z,92.37
2023-01-28T19:39:08.066Z,93.59
2023-01-28T19:41:37.497Z,93.49
2023-01-28T19:44:05.231Z,92.39
2023-01-28T19:46:32.302Z,90.70
2023-01-28T19:48:59.217Z,90.05
2023-01-28T19:51:25.856Z,91.22
2023-01-28T19:53:54.243Z,90.47
2023-01-28T19:56:24.391Z,91.77
2023-01-28T19:58:53.601Z,94.00
2023-01-28T20:01:23.866Z,91.74
2023-01-28T20:03:55.452Z,91.58
2023-01-28T20:06:24.059Z,91.63
2023-01-28T20:08:55.488Z,92.29
2023-01-28T20:11:23.440Z,94.52
2023-01-28T20:13:51.738Z,92.22
2023-01-28T20:16:25.326Z,95.36
2023-01-28T20:18:55.254Z,95.47
2023-01-28T20:21:22.455Z,97.25
2023-01-28T20:23:50.896Z,97.48
2023-01-28T20:26:18.603Z,97.70
2023-01-28T20:28:45.451Z,98.34
2023-01-28T20:31:12.214Z,98.79
2023-01-28T20:33:39.884Z,98.52
2023-01-28T20:36:08.889Z,98.65
2023-01-28T20:38:38.927Z,99.28
2023-01-28T20:41:07.599Z,99.19
2023-01-28T20:43:38.838Z,99.58
2023-01-28T20:46:06.922Z,98.60
2023-01-28T20:48:34.057Z,99.12
2023-01-28T20:51:12.045Z,98.65
2023-01-28T20:53:39.376Z,99.99
2023-01-28T20:56:07.281Z,98.58
2023-01-28T20:58:34.165Z,98.15
2023-01-28T21:01:02.119Z,98.59
2023-01-28T21:03:28.968Z,96.85
2023-01-28T21:05:55.676Z,95.98
2023-01-28T21:08:22.681Z,95.69
2023-01-28T21:10:49.606Z,99.41
2023-01-28T21:13:16.609Z,99.41
2023-01-28T21:16:02.075Z,99.19
2023-01-28T21:18:29.188Z,98.96
2023-01-28T21:20:56.210Z,99.50
2023-01-28T21:23:24.131Z,98.56
2023-01-28T21:25:52.652Z,97.98
2023-01-28T21:28:20.276Z,98.04
2023-01-28T21:30:47.666Z,97.46
2023-01-28T21:33:14.595Z,97.68
2023-01-28T21:35:43.583Z,97.11
2023-01-28T21:38:10.908Z,96.32
2023-01-28T21:40:38.579Z,96.13
2023-01-28T21:43:05.792Z,95.51
2023-01-28T21:45:32.685Z,96.70
2023-01-28T21:47:59.412Z,95.79
2023-01-28T21:50:26.312Z,96.75
2023-01-28T21:52:53.160Z,93.87
2023-01-28T21:55:20.178Z,92.60
2023-01-28T21:57:47.099Z,95.01
2023-01-28T22:00:15.717Z,93.11
2023-01-28T22:02:42.869Z,92.67
2023-01-28T22:05:09.923Z,92.89
2023-01-28T22:07:36.767Z,92.32
2023-01-28T22:10:03.514Z,92.65
2023-01-28T22:12:30.398Z,94.18
2023-01-28T22:14:57.063Z,93.32
2023-01-28T22:17:23.991Z,94.32
2023-01-28T22:19:50.852Z,94.18
2023-01-28T22:22:17.627Z,93.66
2023-01-28T22:24:44.525Z,94.10
2023-01-28T22:27:11.482Z,94.99
2023-01-28T22:29:38.366Z,93.53
2023-01-28T22:32:05.370Z,95.15
2023-01-28T22:34:32.293Z,95.50
2023-01-28T22:36:59.247Z,94.44
2023-01-28T22:39:26.128Z,93.74
2023-01-28T22:41:52.994Z,95.23
2023-01-28T22:44:20.230Z,96.08
2023-01-28T22:46:48.064Z,97.32
2023-01-28T22:49:15.353Z,97.55
2023-01-28T22:51:42.766Z,96.06
2023-01-28T22:54:11.419Z,95.69
2023-01-28T22:56:38.541Z,94.47
2023-01-28T22:59:05.598Z,94.60
2023-01-28T23:01:33.626Z,95.82
2023-01-28T23:04:00.531Z,95.86
2023-01-28T23:06:27.456Z,95.00
2023-01-28T23:08:54.640Z,95.84
2023-01-28T23:11:28.286Z,94.44
2023-01-28T23:14:19.856Z,93.68
2023-01-28T23:17:06.307Z,94.12
2023-01-28T23:19:51.740Z,95.11
2023-01-28T23:22:49.575Z,93.57
2023-01-28T23:25:17.516Z,94.19
2023-01-28T23:27:44.704Z,93.80
2023-01-28T23:30:13.005Z,92.99
2023-01-28T23:32:42.593Z,93.14
2023-01-28T23:35:10.525Z,90.49
2023-01-28T23:37:38.084Z,93.35
2023-01-28T23:40:06.089Z,92.09
2023-01-28T23:42:33.047Z,92.87
2023-01-28T23:44:59.906Z,92.80
2023-01-28T23:47:26.722Z,93.10
2023-01-28T23:49:53.604Z,91.55
2023-01-28T23:52:20.252Z,91.00
2023-01-28T23:54:47.095Z,90.75
2023-01-28T23:57:13.759Z,89.75
2023-01-28T23:59:40.625Z,89.31
